createdAt,value
2018-08-06T05:30:59.906Z,1.63
2018-08-06T05:33:29.167Z,1.70
2018-08-06T05:35:57.894Z,1.53
2018-08-06T05:38:26.541Z,2.00
2018-08-06T05:40:54.790Z,2.00
2018-08-06T05:43:23.397Z,1.80
2018-08-06T05:45:52.035Z,1.73
2018-08-06T05:48:20.687Z,1.97
2018-08-06T05:50:49.254Z,1.50
2018-08-06T05:53:18.807Z,1.90
2018-08-06T05:55:47.648Z,1.50
2018-08-06T05:58:16.335Z,1.50
2018-08-06T06:00:45.008Z,2.37
2018-08-06T06:03:13.682Z,1.80
2018-08-06T06:05:42.375Z,1.50
2018-08-06T06:08:11.454Z,1.80
2018-08-06T06:10:40.168Z,1.40
2018-08-06T06:13:08.814Z,2.00
2018-08-06T06:15:38.432Z,1.77
2018-08-06T06:18:07.031Z,1.60
2018-08-06T06:20:35.655Z,1.83
2018-08-06T06:23:04.334Z,1.80
2018-08-06T06:25:33.658Z,1.97
2018-08-06T06:28:02.343Z,1.50
2018-08-06T06:30:31.837Z,1.80
2018-08-06T06:33:01.495Z,1.83
2018-08-06T06:35:30.089Z,1.73
2018-08-06T06:37:58.662Z,2.00
2018-08-06T06:40:27.279Z,1.83
2018-08-06T06:42:56.263Z,2.10
2018-08-06T06:45:24.911Z,2.03
2018-08-06T06:47:53.495Z,1.73
2018-08-06T06:50:22.132Z,1.50
2018-08-06T06:52:50.742Z,1.90
2018-08-06T06:55:20.306Z,5.53
2018-08-06T06:57:48.958Z,2.17
2018-08-06T07:00:17.918Z,2.10
2018-08-06T07:02:46.483Z,1.90
2018-08-06T07:05:15.157Z,1.80
2018-08-06T07:07:43.777Z,1.80
2018-08-06T07:10:13.629Z,2.00
2018-08-06T07:12:43.636Z,2.40
2018-08-06T07:15:16.318Z,1.70
2018-08-06T07:17:46.977Z,2.03
2018-08-06T07:20:16.868Z,2.00
2018-08-06T07:22:45.406Z,2.03
2018-08-06T07:25:14.052Z,2.20
2018-08-06T07:27:43.352Z,2.07
2018-08-06T07:30:13.534Z,2.00
2018-08-06T07:32:42.845Z,2.07
2018-08-06T07:35:12.986Z,2.10
2018-08-06T07:37:42.179Z,2.00
2018-08-06T07:40:12.320Z,2.07
2018-08-06T07:42:40.928Z,1.80
2018-08-06T07:45:13.063Z,1.90
2018-08-06T07:47:41.660Z,2.13
2018-08-06T07:50:13.655Z,2.27
2018-08-06T07:52:42.587Z,2.13
2018-08-06T07:55:11.359Z,2.07
2018-08-06T07:57:40.344Z,2.20
2018-08-06T08:00:12.949Z,2.13
2018-08-06T08:02:41.990Z,1.90
2018-08-06T08:05:12.689Z,2.10
2018-08-06T08:07:42.446Z,2.30
2018-08-06T08:10:14.064Z,2.00
2018-08-06T08:12:43.055Z,1.80
2018-08-06T08:15:14.506Z,1.80
2018-08-06T08:17:43.910Z,2.13
2018-08-06T08:20:14.021Z,2.03
2018-08-06T08:22:42.884Z,1.77
2018-08-06T08:25:16.103Z,1.70
2018-08-06T08:27:44.911Z,1.87
2018-08-06T08:30:14.898Z,2.10
2018-08-06T08:32:43.559Z,2.43
2018-08-06T08:35:13.287Z,1.90
2018-08-06T08:37:41.972Z,1.90
2018-08-06T08:40:12.774Z,2.00
2018-08-06T08:42:41.346Z,1.80
2018-08-06T08:45:12.815Z,1.80
2018-08-06T08:47:42.392Z,1.93
2018-08-06T08:50:12.861Z,1.97
2018-08-06T08:52:41.974Z,2.07
2018-08-06T08:55:12.014Z,1.80
2018-08-06T08:57:40.812Z,1.70
2018-08-06T09:00:11.802Z,1.80
2018-08-06T09:02:40.739Z,2.20
2018-08-06T09:05:09.377Z,2.17
2018-08-06T09:07:38.543Z,2.00
2018-08-06T09:10:09.035Z,1.80
2018-08-06T09:12:37.740Z,1.63
2018-08-06T09:15:10.271Z,2.00
2018-08-06T09:17:38.932Z,2.10
2018-08-06T09:20:07.614Z,1.90
2018-08-06T09:22:36.222Z,2.00
2018-08-06T09:25:05.999Z,2.07
2018-08-06T09:27:34.664Z,1.90
2018-08-06T09:30:03.759Z,1.97
2018-08-06T09:32:32.351Z,2.07
2018-08-06T09:35:00.911Z,1.80
2018-08-06T09:37:29.755Z,1.87
2018-08-06T09:39:58.917Z,1.90
2018-08-06T09:42:27.680Z,1.63
2018-08-06T09:44:56.273Z,2.10
2018-08-06T09:47:24.945Z,1.67
2018-08-06T09:49:53.593Z,1.90
2018-08-06T09:52:22.207Z,7.50
2018-08-06T09:54:50.890Z,2.00
2018-08-06T09:57:19.479Z,4.97
2018-08-06T09:59:48.096Z,3.63
2018-08-06T10:02:16.711Z,2.30
2018-08-06T10:04:45.295Z,1.90
2018-08-06T10:07:13.877Z,1.80
2018-08-06T10:09:42.454Z,3.63
2018-08-06T10:12:11.164Z,2.03
2018-08-06T10:14:39.728Z,1.60
2018-08-06T10:17:08.347Z,2.20
2018-08-06T10:19:36.978Z,2.10
2018-08-06T10:22:05.657Z,2.00
2018-08-06T10:24:35.217Z,2.03
2018-08-06T10:27:03.808Z,1.97
2018-08-06T10:29:32.406Z,2.40
2018-08-06T10:32:01.032Z,2.23
2018-08-06T10:34:30.543Z,2.07
2018-08-06T10:37:00.056Z,2.30
2018-08-06T10:39:29.531Z,2.10
2018-08-06T10:41:59.132Z,2.03
2018-08-06T10:44:27.804Z,2.10
2018-08-06T10:46:57.387Z,2.40
2018-08-06T10:49:26.009Z,2.30
2018-08-06T10:51:54.305Z,2.07
2018-08-06T10:54:22.981Z,2.23
2018-08-06T10:56:51.656Z,2.10
2018-08-06T10:59:20.400Z,2.43
2018-08-06T11:01:49.655Z,2.40
2018-08-06T11:04:18.325Z,2.40
2018-08-06T11:06:46.967Z,2.10
2018-08-06T11:09:15.989Z,2.10
2018-08-06T11:11:44.662Z,2.20
2018-08-06T11:14:13.372Z,3.10
2018-08-06T11:16:42.020Z,2.50
2018-08-06T11:19:10.779Z,2.67
2018-08-06T11:21:39.408Z,2.40
2018-08-06T11:24:08.071Z,2.80
2018-08-06T11:26:36.661Z,2.40
2018-08-06T11:29:06.088Z,2.10
2018-08-06T11:31:34.726Z,2.40
2018-08-06T11:34:04.367Z,2.20
2018-08-06T11:36:32.966Z,2.20
2018-08-06T11:39:01.577Z,2.23
2018-08-06T11:41:31.285Z,2.50
2018-08-06T11:43:59.834Z,2.27
2018-08-06T11:46:29.138Z,2.30
2018-08-06T11:48:57.763Z,2.30
2018-08-06T11:51:26.368Z,2.00
2018-08-06T11:53:55.249Z,2.30
2018-08-06T11:56:24.579Z,2.00
2018-08-06T11:58:53.171Z,2.17
2018-08-06T12:01:21.783Z,2.30
2018-08-06T12:03:50.487Z,2.40
2018-08-06T12:06:19.047Z,2.20
2018-08-06T12:08:47.540Z,2.42
2018-08-06T12:11:16.130Z,2.40
2018-08-06T12:13:44.755Z,2.05
2018-08-06T12:16:14.412Z,2.12
2018-08-06T12:18:42.680Z,2.17
2018-08-06T12:21:11.278Z,2.25
2018-08-06T12:23:39.893Z,2.50
2018-08-06T12:26:08.607Z,2.30
2018-08-06T12:28:37.163Z,1.90
2018-08-06T12:31:05.820Z,2.10
2018-08-06T12:33:34.468Z,2.37
2018-08-06T12:36:03.110Z,2.02
2018-08-06T12:38:43.014Z,2.40
2018-08-06T12:41:12.626Z,2.40
2018-08-06T12:43:41.379Z,2.20
2018-08-06T12:46:24.466Z,2.20
2018-08-06T12:48:53.155Z,1.90
2018-08-06T12:51:22.007Z,2.40
2018-08-06T12:53:50.604Z,2.17
2018-08-06T12:56:19.170Z,2.30
2018-08-06T12:58:47.802Z,2.40
2018-08-06T13:01:16.661Z,2.33
2018-08-06T13:03:45.318Z,2.35
2018-08-06T13:06:14.664Z,2.27
2018-08-06T13:08:43.655Z,2.52
2018-08-06T13:11:12.690Z,2.17
2018-08-06T13:13:41.394Z,2.30
2018-08-06T13:16:10.017Z,2.00
2018-08-06T13:18:38.482Z,2.12
2018-08-06T13:21:07.955Z,2.35
2018-08-06T13:23:36.586Z,2.02
2018-08-06T13:26:05.326Z,2.50
2018-08-06T13:28:33.975Z,2.45
2018-08-06T13:31:02.619Z,2.08
2018-08-06T13:33:31.702Z,2.08
2018-08-06T13:36:00.327Z,2.12
2018-08-06T13:38:29.983Z,2.50
2018-08-06T13:40:58.705Z,2.62
2018-08-06T13:43:27.288Z,2.50
2018-08-06T13:45:56.049Z,2.10
2018-08-06T13:48:24.809Z,2.17
2018-08-06T13:50:56.778Z,2.10
2018-08-06T13:53:25.546Z,2.37
2018-08-06T13:55:55.021Z,2.20
2018-08-06T13:58:23.762Z,2.35
2018-08-06T14:00:52.536Z,2.30
2018-08-06T14:03:21.344Z,2.70
2018-08-06T14:05:49.994Z,2.70
2018-08-06T14:08:18.681Z,2.70
2018-08-06T14:10:47.377Z,2.42
2018-08-06T14:13:16.027Z,2.45
2018-08-06T14:18:48.283Z,2.30
2018-08-06T14:21:17.000Z,2.85
2018-08-06T14:23:46.911Z,2.30
2018-08-06T14:26:15.577Z,2.45
2018-08-06T14:28:44.369Z,2.90
2018-08-06T14:31:13.919Z,2.90
2018-08-06T14:33:43.384Z,2.60
2018-08-06T14:36:14.174Z,2.85
2018-08-06T14:38:42.486Z,2.95
2018-08-06T14:41:11.146Z,2.58
2018-08-06T14:43:39.855Z,2.80
2018-08-06T14:46:08.615Z,2.85
2018-08-06T14:48:37.291Z,2.90
2018-08-06T14:51:06.051Z,2.70
2018-08-06T14:53:34.806Z,3.17
2018-08-06T14:56:04.850Z,3.10
2018-08-06T14:58:33.675Z,3.20
2018-08-06T15:01:05.181Z,2.70
2018-08-06T15:03:33.799Z,2.87
2018-08-06T15:06:03.127Z,3.00
2018-08-06T15:08:31.995Z,3.00
2018-08-06T15:11:00.632Z,3.55
2018-08-06T15:13:30.531Z,3.20
2018-08-06T15:15:59.194Z,2.90
2018-08-06T15:18:27.820Z,3.15
2018-08-06T15:20:56.518Z,3.00
2018-08-06T15:23:25.138Z,3.08
2018-08-06T15:25:54.702Z,2.87
2018-08-06T15:28:23.807Z,2.98
2018-08-06T15:30:52.474Z,2.83
2018-08-06T15:33:21.120Z,2.70
2018-08-06T15:35:49.787Z,3.00
2018-08-06T15:38:18.439Z,2.95
2018-08-06T15:40:47.499Z,2.60
2018-08-06T15:43:16.226Z,3.50
2018-08-06T15:45:44.907Z,2.92
2018-08-06T15:48:13.581Z,3.47
2018-08-06T15:50:42.218Z,3.30
2018-08-06T15:53:10.882Z,3.00
2018-08-06T15:55:40.296Z,3.00
2018-08-06T15:58:09.004Z,3.27
2018-08-06T16:00:38.430Z,3.17
2018-08-06T16:03:07.139Z,3.00
2018-08-06T16:05:35.775Z,3.60
2018-08-06T16:08:04.491Z,3.20
2018-08-06T16:10:33.084Z,2.90
2018-08-06T16:13:01.698Z,3.40
2018-08-06T16:15:30.338Z,3.45
2018-08-06T16:17:59.040Z,2.77
2018-08-06T16:20:27.649Z,3.20
2018-08-06T16:22:56.238Z,3.10
2018-08-06T16:25:24.843Z,3.12
2018-08-06T16:27:54.102Z,3.20
2018-08-06T16:30:24.157Z,3.02
2018-08-06T16:32:52.815Z,3.40
2018-08-06T16:35:23.824Z,3.20
2018-08-06T16:37:53.996Z,3.30
2018-08-06T16:40:22.726Z,3.15
2018-08-06T16:42:51.838Z,3.50
2018-08-06T16:45:21.383Z,2.90
2018-08-06T16:47:50.207Z,4.08
2018-08-06T16:50:19.325Z,3.10
2018-08-06T16:52:49.760Z,2.98
2018-08-06T16:55:18.306Z,3.37
2018-08-06T16:57:46.954Z,3.37
2018-08-06T17:00:18.439Z,3.12
2018-08-06T17:02:48.667Z,3.60
2018-08-06T17:05:17.383Z,3.10
2018-08-06T17:07:47.208Z,3.53
2018-08-06T17:10:18.694Z,3.47
2018-08-06T17:12:48.792Z,3.20
2018-08-06T17:15:18.610Z,3.40
2018-08-06T17:17:48.139Z,3.15
2018-08-06T17:20:19.517Z,3.02
2018-08-06T17:22:49.912Z,3.35
2018-08-06T17:25:18.726Z,3.10
2018-08-06T17:27:47.415Z,3.33
2018-08-06T17:30:17.063Z,3.40
2018-08-06T17:32:46.317Z,3.60
2018-08-06T17:35:15.506Z,3.60
2018-08-06T17:37:44.177Z,3.50
2018-08-06T17:40:15.256Z,4.50
2018-08-06T17:42:44.879Z,3.40
2018-08-06T17:45:17.246Z,3.65
2018-08-06T17:47:47.996Z,3.27
2018-08-06T17:50:19.462Z,3.08
2018-08-06T17:52:50.287Z,2.97
2018-08-06T17:55:21.540Z,3.30
2018-08-06T17:57:50.354Z,3.20
2018-08-06T18:00:20.804Z,3.00
2018-08-06T18:02:50.374Z,3.57
2018-08-06T18:05:19.555Z,3.67
2018-08-06T18:07:49.032Z,3.00
2018-08-06T18:10:18.711Z,3.77
2018-08-06T18:12:47.865Z,3.73
2018-08-06T18:15:17.588Z,3.60
2018-08-06T18:17:47.212Z,3.60
2018-08-06T18:20:19.108Z,3.60
2018-08-06T18:22:49.640Z,3.67
2018-08-06T18:25:20.964Z,4.03
2018-08-06T18:27:51.896Z,3.67
2018-08-06T18:30:23.588Z,4.30
2018-08-06T18:32:54.633Z,4.43
2018-08-06T18:35:25.567Z,4.13
2018-08-06T18:37:56.715Z,4.20
2018-08-06T18:40:27.710Z,3.77
2018-08-06T18:43:00.176Z,4.17
2018-08-06T18:45:31.570Z,4.23
2018-08-06T18:48:03.180Z,3.90
2018-08-06T18:50:34.308Z,4.23
2018-08-06T18:53:05.291Z,4.37
2018-08-06T18:55:36.949Z,4.70
2018-08-06T18:58:07.203Z,4.47
2018-08-06T19:00:39.098Z,4.23
2018-08-06T19:03:10.276Z,4.33
2018-08-06T19:05:41.655Z,4.53
2018-08-06T19:08:12.742Z,4.93
2018-08-06T19:10:44.116Z,4.47
2018-08-06T19:13:19.973Z,4.63
2018-08-06T19:15:51.597Z,4.97
2018-08-06T19:18:28.216Z,4.73
2018-08-06T19:21:01.297Z,5.17
2018-08-06T19:23:32.345Z,4.60
2018-08-06T19:26:03.440Z,4.73
2018-08-06T19:28:34.503Z,4.30
2018-08-06T19:31:10.478Z,4.70
2018-08-06T19:33:42.622Z,4.90
2018-08-06T19:36:13.874Z,5.10
2018-08-06T19:38:44.927Z,4.70
2018-08-06T19:41:16.241Z,4.93
2018-08-06T19:43:48.422Z,4.60
2018-08-06T19:46:19.566Z,4.90
2018-08-06T19:48:51.723Z,4.70
2018-08-06T19:51:22.775Z,4.83
2018-08-06T19:53:54.016Z,4.47
2018-08-06T19:56:25.373Z,4.43
2018-08-06T19:58:56.500Z,4.17
2018-08-06T20:01:27.736Z,3.90
2018-08-06T20:04:00.953Z,4.50
2018-08-06T20:06:32.384Z,4.80
2018-08-06T20:09:03.921Z,4.57
2018-08-06T20:11:35.741Z,4.23
2018-08-06T20:14:07.022Z,4.50
2018-08-06T20:16:38.645Z,4.53
2018-08-06T20:19:10.603Z,4.30
2018-08-06T20:21:41.770Z,3.73
2018-08-06T20:24:13.069Z,4.50
2018-08-06T20:26:44.234Z,4.30
2018-08-06T20:29:15.216Z,4.73
2018-08-06T20:31:46.345Z,4.37
2018-08-06T20:34:23.568Z,4.20
2018-08-06T20:36:54.652Z,4.70
2018-08-06T20:39:25.589Z,4.60
2018-08-06T20:41:56.721Z,4.60
2018-08-06T20:44:27.687Z,4.43
2018-08-06T20:46:59.136Z,5.40
2018-08-06T20:49:30.231Z,5.10
2018-08-06T20:52:01.398Z,5.67
2018-08-06T20:54:35.304Z,5.50
2018-08-06T20:57:06.614Z,5.10
2018-08-06T20:59:38.325Z,4.80
2018-08-06T21:02:09.720Z,5.00
2018-08-06T21:04:40.508Z,4.77
2018-08-06T21:07:11.664Z,4.83
2018-08-06T21:09:42.718Z,5.00
2018-08-06T21:12:13.696Z,5.20
2018-08-06T21:14:46.477Z,5.00
2018-08-06T21:17:16.676Z,5.07
2018-08-06T21:19:45.636Z,5.27
2018-08-06T21:22:15.369Z,5.13
2018-08-06T21:24:44.377Z,4.60
2018-08-06T21:27:13.222Z,4.70
2018-08-06T21:29:42.136Z,4.50
2018-08-06T21:32:10.712Z,4.20
2018-08-06T21:34:40.502Z,4.60
2018-08-06T21:37:09.174Z,4.23
2018-08-06T21:39:37.897Z,4.47
2018-08-06T21:42:06.797Z,4.57
2018-08-06T21:44:35.511Z,4.00
2018-08-06T21:47:04.166Z,4.60
2018-08-06T21:49:32.747Z,4.73
2018-08-06T21:52:01.404Z,4.40
2018-08-06T21:54:31.025Z,4.00
2018-08-06T21:57:00.735Z,3.77
2018-08-06T21:59:29.290Z,4.40
2018-08-06T22:01:57.992Z,3.90
2018-08-06T22:04:26.704Z,4.07
2018-08-06T22:06:55.421Z,4.33
2018-08-06T22:09:24.114Z,4.50
2018-08-06T22:11:53.152Z,4.37
2018-08-06T22:14:22.155Z,4.20
2018-08-06T22:16:51.724Z,4.37
2018-08-06T22:19:20.452Z,4.63
2018-08-06T22:21:49.513Z,4.33
2018-08-06T22:24:18.160Z,4.17
2018-08-06T22:26:47.473Z,4.50
2018-08-06T22:29:16.070Z,4.60
2018-08-06T22:31:44.644Z,3.90
2018-08-06T22:34:13.246Z,4.47
2018-08-06T22:36:41.807Z,4.00
2018-08-06T22:39:11.135Z,4.27
2018-08-06T22:41:39.723Z,3.73
2018-08-06T22:44:08.347Z,4.17
2018-08-06T22:46:36.950Z,3.53
2018-08-06T22:49:06.511Z,4.00
2018-08-06T22:51:36.121Z,4.20
2018-08-06T22:54:04.863Z,3.80
2018-08-06T22:56:33.426Z,3.80
2018-08-06T22:59:02.138Z,3.50
